sensor_id;sensor_type;location;lat;lon;timestamp;P1;durP1;ratioP1;P2;durP2;ratioP2
60492;SDS011;46341;51.290;-2.474;2023-01-04T00:00:37;12.93;;;2.60;;
60492;SDS011;46341;51.290;-2.474;2023-01-04T00:03:04;16.67;;;2.90;;
60492;SDS011;46341;51.290;-2.474;2023-01-04T00:05:30;15.90;;;2.95;;
60492;SDS011;46341;51.290;-2.474;2023-01-04T00:07:57;12.32;;;2.75;;
60492;SDS011;46341;51.290;-2.474;2023-01-04T00:10:23;18.25;;;3.13;;
60492;SDS011;46341;51.290;-2.474;2023-01-04T00:12:50;16.15;;;3.35;;
60492;SDS011;46341;51.290;-2.474;2023-01-04T00:15:16;16.83;;;2.75;;
60492;SDS011;46341;51.290;-2.474;2023-01-04T00:17:43;14.70;;;2.88;;
60492;SDS011;46341;51.290;-2.474;2023-01-04T00:20:09;26.08;;;3.95;;
60492;SDS011;46341;51.290;-2.474;2023-01-04T00:22:35;15.38;;;3.28;;
60492;SDS011;46341;51.290;-2.474;2023-01-04T00:25:02;17.13;;;3.15;;
60492;SDS011;46341;51.290;-2.474;2023-01-04T00:27:28;14.38;;;2.88;;
60492;SDS011;46341;51.290;-2.474;2023-01-04T00:29:55;22.00;;;3.35;;
60492;SDS011;46341;51.290;-2.474;2023-01-04T00:32:21;15.70;;;3.22;;
60492;SDS011;46341;51.290;-2.474;2023-01-04T00:34:47;23.58;;;3.88;;
60492;SDS011;46341;51.290;-2.474;2023-01-04T00:37:14;15.15;;;2.88;;
60492;SDS011;46341;51.290;-2.474;2023-01-04T00:39:40;18.58;;;3.28;;
60492;SDS011;46341;51.290;-2.474;2023-01-04T00:42:06;18.85;;;3.38;;
60492;SDS011;46341;51.290;-2.474;2023-01-04T00:44:33;22.73;;;3.80;;
60492;SDS011;46341;51.290;-2.474;2023-01-04T00:47:01;16.60;;;3.17;;
60492;SDS011;46341;51.290;-2.474;2023-01-04T00:49:27;18.10;;;3.47;;
60492;SDS011;46341;51.290;-2.474;2023-01-04T00:51:54;21.20;;;3.20;;
60492;SDS011;46341;51.290;-2.474;2023-01-04T00:54:21;19.77;;;3.80;;
60492;SDS011;46341;51.290;-2.474;2023-01-04T00:56:47;22.20;;;3.90;;
60492;SDS011;46341;51.290;-2.474;2023-01-04T00:59:14;26.95;;;4.47;;
60492;SDS011;46341;51.290;-2.474;2023-01-04T01:01:41;19.87;;;3.63;;
60492;SDS011;46341;51.290;-2.474;2023-01-04T01:04:09;27.23;;;4.17;;
60492;SDS011;46341;51.290;-2.474;2023-01-04T01:06:36;19.17;;;3.58;;
60492;SDS011;46341;51.290;-2.474;2023-01-04T01:09:03;19.92;;;3.80;;
60492;SDS011;46341;51.290;-2.474;2023-01-04T01:11:29;28.20;;;4.65;;
60492;SDS011;46341;51.290;-2.474;2023-01-04T01:13:56;23.85;;;4.28;;
60492;SDS011;46341;51.290;-2.474;2023-01-04T01:16:23;29.63;;;4.30;;
60492;SDS011;46341;51.290;-2.474;2023-01-04T01:19:10;21.50;;;3.92;;
60492;SDS011;46341;51.290;-2.474;2023-01-04T01:21:36;29.73;;;4.78;;
60492;SDS011;46341;51.290;-2.474;2023-01-04T01:24:03;16.98;;;3.75;;
60492;SDS011;46341;51.290;-2.474;2023-01-04T01:26:29;31.02;;;4.28;;
60492;SDS011;46341;51.290;-2.474;2023-01-04T01:28:56;21.40;;;4.57;;
60492;SDS011;46341;51.290;-2.474;2023-01-04T01:31:25;24.13;;;4.47;;
60492;SDS011;46341;51.290;-2.474;2023-01-04T01:33:53;24.63;;;4.40;;
60492;SDS011;46341;51.290;-2.474;2023-01-04T01:36:20;26.55;;;4.05;;
60492;SDS011;46341;51.290;-2.474;2023-01-04T01:38:47;30.77;;;4.75;;
60492;SDS011;46341;51.290;-2.474;2023-01-04T01:41:26;22.52;;;4.50;;
60492;SDS011;46341;51.290;-2.474;2023-01-04T01:43:54;23.00;;;4.45;;
60492;SDS011;46341;51.290;-2.474;2023-01-04T01:48:47;27.90;;;4.53;;
60492;SDS011;46341;51.290;-2.474;2023-01-04T01:51:14;32.38;;;4.82;;
60492;SDS011;46341;51.290;-2.474;2023-01-04T01:53:42;25.58;;;4.82;;
60492;SDS011;46341;51.290;-2.474;2023-01-04T01:58:36;29.77;;;4.30;;
60492;SDS011;46341;51.290;-2.474;2023-01-04T02:01:04;27.35;;;4.10;;
60492;SDS011;46341;51.290;-2.474;2023-01-04T02:03:34;22.50;;;4.35;;
60492;SDS011;46341;51.290;-2.474;2023-01-04T02:06:01;26.05;;;4.18;;
60492;SDS011;46341;51.290;-2.474;2023-01-04T02:10:55;26.55;;;4.78;;
60492;SDS011;46341;51.290;-2.474;2023-01-04T02:13:24;24.30;;;3.55;;
60492;SDS011;46341;51.290;-2.474;2023-01-04T02:16:11;19.30;;;3.75;;
60492;SDS011;46341;51.290;-2.474;2023-01-04T02:18:57;16.50;;;3.42;;
60492;SDS011;46341;51.290;-2.474;2023-01-04T02:21:34;21.50;;;3.38;;
60492;SDS011;46341;51.290;-2.474;2023-01-04T02:24:25;16.88;;;3.67;;
60492;SDS011;46341;51.290;-2.474;2023-01-04T02:31:55;10.90;;;2.22;;
60492;SDS011;46341;51.290;-2.474;2023-01-04T02:44:47;17.45;;;3.08;;
60492;SDS011;46341;51.290;-2.474;2023-01-04T02:50:15;9.10;;;2.03;;
60492;SDS011;46341;51.290;-2.474;2023-01-04T02:55:23;11.98;;;2.70;;
60492;SDS011;46341;51.290;-2.474;2023-01-04T02:57:57;13.98;;;2.50;;
60492;SDS011;46341;51.290;-2.474;2023-01-04T03:00:30;11.35;;;2.10;;
60492;SDS011;46341;51.290;-2.474;2023-01-04T03:03:21;13.35;;;2.20;;
60492;SDS011;46341;51.290;-2.474;2023-01-04T03:06:15;15.32;;;2.67;;
60492;SDS011;46341;51.290;-2.474;2023-01-04T03:08:47;14.32;;;2.50;;
60492;SDS011;46341;51.290;-2.474;2023-01-04T03:11:15;15.80;;;2.55;;
60492;SDS011;46341;51.290;-2.474;2023-01-04T03:14:06;10.00;;;1.63;;
60492;SDS011;46341;51.290;-2.474;2023-01-04T03:16:54;15.30;;;2.58;;
60492;SDS011;46341;51.290;-2.474;2023-01-04T03:19:21;13.32;;;2.28;;
60492;SDS011;46341;51.290;-2.474;2023-01-04T03:22:09;17.90;;;2.78;;
60492;SDS011;46341;51.290;-2.474;2023-01-04T03:24:57;13.10;;;2.28;;
60492;SDS011;46341;51.290;-2.474;2023-01-04T03:27:42;20.92;;;2.72;;
60492;SDS011;46341;51.290;-2.474;2023-01-04T03:30:30;11.18;;;2.45;;
60492;SDS011;46341;51.290;-2.474;2023-01-04T03:33:18;9.02;;;1.83;;
60492;SDS011;46341;51.290;-2.474;2023-01-04T03:38:47;14.13;;;2.35;;
60492;SDS011;46341;51.290;-2.474;2023-01-04T03:41:43;11.88;;;2.00;;
60492;SDS011;46341;51.290;-2.474;2023-01-04T03:44:39;7.90;;;1.77;;
60492;SDS011;46341;51.290;-2.474;2023-01-04T03:47:43;7.22;;;1.67;;
60492;SDS011;46341;51.290;-2.474;2023-01-04T03:50:32;8.73;;;1.98;;
60492;SDS011;46341;51.290;-2.474;2023-01-04T03:53:00;12.52;;;1.65;;
60492;SDS011;46341;51.290;-2.474;2023-01-04T03:55:27;5.03;;;1.25;;
60492;SDS011;46341;51.290;-2.474;2023-01-04T03:57:55;12.02;;;1.42;;
60492;SDS011;46341;51.290;-2.474;2023-01-04T04:00:22;6.13;;;1.35;;
60492;SDS011;46341;51.290;-2.474;2023-01-04T04:02:49;6.35;;;1.02;;
60492;SDS011;46341;51.290;-2.474;2023-01-04T04:05:17;9.40;;;1.60;;
60492;SDS011;46341;51.290;-2.474;2023-01-04T04:08:02;8.98;;;1.75;;
60492;SDS011;46341;51.290;-2.474;2023-01-04T04:10:47;9.95;;;1.90;;
60492;SDS011;46341;51.290;-2.474;2023-01-04T04:13:14;9.02;;;1.63;;
60492;SDS011;46341;51.290;-2.474;2023-01-04T04:15:40;7.75;;;2.13;;
60492;SDS011;46341;51.290;-2.474;2023-01-04T04:18:07;7.28;;;2.38;;
60492;SDS011;46341;51.290;-2.474;2023-01-04T04:20:34;7.07;;;1.90;;
60492;SDS011;46341;51.290;-2.474;2023-01-04T04:23:00;9.82;;;2.20;;
60492;SDS011;46341;51.290;-2.474;2023-01-04T04:25:26;8.90;;;2.10;;
60492;SDS011;46341;51.290;-2.474;2023-01-04T04:27:53;11.75;;;1.70;;
60492;SDS011;46341;51.290;-2.474;2023-01-04T04:30:19;5.60;;;1.10;;
60492;SDS011;46341;51.290;-2.474;2023-01-04T04:32:45;6.95;;;1.30;;
60492;SDS011;46341;51.290;-2.474;2023-01-04T04:35:12;4.55;;;0.90;;
60492;SDS011;46341;51.290;-2.474;2023-01-04T04:37:38;5.50;;;1.05;;
60492;SDS011;46341;51.290;-2.474;2023-01-04T04:40:05;7.88;;;1.50;;
60492;SDS011;46341;51.290;-2.474;2023-01-04T04:42:31;5.60;;;0.75;;
60492;SDS011;46341;51.290;-2.474;2023-01-04T04:44:58;3.13;;;0.60;;
60492;SDS011;46341;51.290;-2.474;2023-01-04T04:47:24;8.70;;;1.10;;
60492;SDS011;46341;51.290;-2.474;2023-01-04T04:49:50;4.80;;;0.70;;
60492;SDS011;46341;51.290;-2.474;2023-01-04T04:52:17;2.63;;;0.55;;
60492;SDS011;46341;51.290;-2.474;2023-01-04T04:54:43;3.00;;;0.40;;
60492;SDS011;46341;51.290;-2.474;2023-01-04T04:57:10;2.00;;;0.20;;
60492;SDS011;46341;51.290;-2.474;2023-01-04T04:59:36;0.95;;;0.10;;
60492;SDS011;46341;51.290;-2.474;2023-01-04T05:02:03;3.97;;;0.30;;
60492;SDS011;46341;51.290;-2.474;2023-01-04T05:04:29;5.22;;;0.35;;
60492;SDS011;46341;51.290;-2.474;2023-01-04T05:06:55;9.07;;;0.50;;
60492;SDS011;46341;51.290;-2.474;2023-01-04T05:09:22;1.70;;;0.13;;
60492;SDS011;46341;51.290;-2.474;2023-01-04T05:11:48;4.38;;;0.32;;
60492;SDS011;46341;51.290;-2.474;2023-01-04T05:14:33;0.25;;;0.10;;
60492;SDS011;46341;51.290;-2.474;2023-01-04T05:16:59;0.93;;;0.10;;
60492;SDS011;46341;51.290;-2.474;2023-01-04T05:19:26;0.95;;;0.10;;
60492;SDS011;46341;51.290;-2.474;2023-01-04T05:21:52;2.00;;;0.30;;
60492;SDS011;46341;51.290;-2.474;2023-01-04T05:24:19;5.93;;;0.28;;
60492;SDS011;46341;51.290;-2.474;2023-01-04T05:26:45;2.22;;;0.25;;
60492;SDS011;46341;51.290;-2.474;2023-01-04T05:29:11;1.95;;;0.20;;
60492;SDS011;46341;51.290;-2.474;2023-01-04T05:31:58;1.50;;;0.28;;
60492;SDS011;46341;51.290;-2.474;2023-01-04T05:34:24;1.30;;;0.43;;
60492;SDS011;46341;51.290;-2.474;2023-01-04T05:36:51;0.52;;;0.10;;
60492;SDS011;46341;51.290;-2.474;2023-01-04T05:39:17;0.38;;;0.10;;
60492;SDS011;46341;51.290;-2.474;2023-01-04T05:41:43;0.52;;;0.20;;
60492;SDS011;46341;51.290;-2.474;2023-01-04T05:44:29;0.20;;;0.20;;
60492;SDS011;46341;51.290;-2.474;2023-01-04T05:46:55;1.50;;;0.30;;
60492;SDS011;46341;51.290;-2.474;2023-01-04T05:49:21;0.65;;;0.20;;
60492;SDS011;46341;51.290;-2.474;2023-01-04T05:51:48;1.98;;;0.30;;
60492;SDS011;46341;51.290;-2.474;2023-01-04T05:54:14;1.65;;;0.45;;
60492;SDS011;46341;51.290;-2.474;2023-01-04T05:56:46;1.98;;;0.45;;
60492;SDS011;46341;51.290;-2.474;2023-01-04T05:59:12;4.43;;;0.70;;
60492;SDS011;46341;51.290;-2.474;2023-01-04T06:01:40;4.75;;;0.85;;
60492;SDS011;46341;51.290;-2.474;2023-01-04T06:04:06;4.10;;;0.80;;
60492;SDS011;46341;51.290;-2.474;2023-01-04T06:06:33;8.63;;;1.25;;
60492;SDS011;46341;51.290;-2.474;2023-01-04T06:08:59;5.43;;;0.93;;
60492;SDS011;46341;51.290;-2.474;2023-01-04T06:11:25;4.97;;;1.00;;
60492;SDS011;46341;51.290;-2.474;2023-01-04T06:13:53;9.07;;;2.15;;
60492;SDS011;46341;51.290;-2.474;2023-01-04T06:16:19;6.85;;;1.98;;
60492;SDS011;46341;51.290;-2.474;2023-01-04T06:18:45;8.57;;;1.52;;
60492;SDS011;46341;51.290;-2.474;2023-01-04T06:21:12;10.23;;;1.63;;
60492;SDS011;46341;51.290;-2.474;2023-01-04T06:23:38;9.25;;;1.73;;
60492;SDS011;46341;51.290;-2.474;2023-01-04T06:26:04;14.93;;;2.47;;
60492;SDS011;46341;51.290;-2.474;2023-01-04T06:28:31;15.57;;;2.30;;
60492;SDS011;46341;51.290;-2.474;2023-01-04T06:31:06;17.70;;;2.53;;
60492;SDS011;46341;51.290;-2.474;2023-01-04T06:33:33;17.90;;;2.50;;
60492;SDS011;46341;51.290;-2.474;2023-01-04T06:35:59;25.25;;;3.03;;
60492;SDS011;46341;51.290;-2.474;2023-01-04T06:38:26;22.05;;;3.08;;
60492;SDS011;46341;51.290;-2.474;2023-01-04T06:40:53;25.05;;;3.20;;
60492;SDS011;46341;51.290;-2.474;2023-01-04T06:43:19;18.30;;;2.65;;
60492;SDS011;46341;51.290;-2.474;2023-01-04T06:45:45;18.75;;;3.13;;
60492;SDS011;46341;51.290;-2.474;2023-01-04T06:48:12;21.20;;;3.00;;
60492;SDS011;46341;51.290;-2.474;2023-01-04T06:50:43;25.70;;;3.70;;
60492;SDS011;46341;51.290;-2.474;2023-01-04T06:53:10;24.70;;;3.58;;
60492;SDS011;46341;51.290;-2.474;2023-01-04T06:55:36;22.92;;;3.97;;
60492;SDS011;46341;51.290;-2.474;2023-01-04T06:58:03;16.00;;;3.33;;
60492;SDS011;46341;51.290;-2.474;2023-01-04T07:00:29;22.35;;;3.30;;
60492;SDS011;46341;51.290;-2.474;2023-01-04T07:02:55;21.83;;;3.30;;
60492;SDS011;46341;51.290;-2.474;2023-01-04T07:05:40;22.33;;;3.35;;
60492;SDS011;46341;51.290;-2.474;2023-01-04T07:08:07;29.58;;;4.30;;
60492;SDS011;46341;51.290;-2.474;2023-01-04T07:10:34;24.52;;;4.03;;
60492;SDS011;46341;51.290;-2.474;2023-01-04T07:13:00;29.67;;;3.60;;
60492;SDS011;46341;51.290;-2.474;2023-01-04T07:15:26;28.80;;;5.05;;
60492;SDS011;46341;51.290;-2.474;2023-01-04T07:18:05;28.90;;;5.18;;
60492;SDS011;46341;51.290;-2.474;2023-01-04T07:20:31;34.38;;;4.43;;
60492;SDS011;46341;51.290;-2.474;2023-01-04T07:22:58;32.58;;;4.30;;
60492;SDS011;46341;51.290;-2.474;2023-01-04T07:25:24;26.88;;;4.75;;
60492;SDS011;46341;51.290;-2.474;2023-01-04T07:27:51;31.20;;;4.75;;
60492;SDS011;46341;51.290;-2.474;2023-01-04T07:30:19;23.63;;;4.45;;
60492;SDS011;46341;51.290;-2.474;2023-01-04T07:32:45;23.65;;;4.80;;
60492;SDS011;46341;51.290;-2.474;2023-01-04T07:35:12;23.60;;;4.25;;
60492;SDS011;46341;51.290;-2.474;2023-01-04T07:37:38;21.35;;;3.72;;
60492;SDS011;46341;51.290;-2.474;2023-01-04T07:40:05;27.50;;;4.35;;
60492;SDS011;46341;51.290;-2.474;2023-01-04T07:42:31;27.30;;;4.65;;
60492;SDS011;46341;51.290;-2.474;2023-01-04T07:44:58;28.17;;;4.30;;
60492;SDS011;46341;51.290;-2.474;2023-01-04T07:47:24;31.33;;;5.07;;
60492;SDS011;46341;51.290;-2.474;2023-01-04T07:49:52;29.85;;;4.55;;
60492;SDS011;46341;51.290;-2.474;2023-01-04T07:52:18;25.00;;;4.35;;
60492;SDS011;46341;51.290;-2.474;2023-01-04T07:54:45;26.05;;;4.30;;
60492;SDS011;46341;51.290;-2.474;2023-01-04T07:57:11;27.23;;;4.65;;
60492;SDS011;46341;51.290;-2.474;2023-01-04T07:59:38;27.30;;;4.75;;
60492;SDS011;46341;51.290;-2.474;2023-01-04T08:02:04;29.15;;;5.72;;
60492;SDS011;46341;51.290;-2.474;2023-01-04T08:04:31;29.90;;;5.20;;
60492;SDS011;46341;51.290;-2.474;2023-01-04T08:07:00;29.90;;;4.22;;
60492;SDS011;46341;51.290;-2.474;2023-01-04T08:09:27;33.70;;;6.20;;
60492;SDS011;46341;51.290;-2.474;2023-01-04T08:11:53;29.52;;;4.97;;
60492;SDS011;46341;51.290;-2.474;2023-01-04T08:14:19;24.15;;;4.13;;
60492;SDS011;46341;51.290;-2.474;2023-01-04T08:16:46;38.78;;;5.97;;
60492;SDS011;46341;51.290;-2.474;2023-01-04T08:19:13;41.33;;;8.55;;
60492;SDS011;46341;51.290;-2.474;2023-01-04T08:21:41;33.88;;;8.85;;
60492;SDS011;46341;51.290;-2.474;2023-01-04T08:24:09;38.67;;;7.95;;
60492;SDS011;46341;51.290;-2.474;2023-01-04T08:26:35;35.53;;;5.90;;
60492;SDS011;46341;51.290;-2.474;2023-01-04T08:29:02;31.38;;;5.40;;
60492;SDS011;46341;51.290;-2.474;2023-01-04T08:31:29;30.90;;;5.00;;
60492;SDS011;46341;51.290;-2.474;2023-01-04T08:33:56;33.22;;;4.88;;
60492;SDS011;46341;51.290;-2.474;2023-01-04T08:38:54;28.60;;;5.03;;
60492;SDS011;46341;51.290;-2.474;2023-01-04T08:41:26;38.75;;;5.95;;
60492;SDS011;46341;51.290;-2.474;2023-01-04T08:44:13;30.73;;;4.93;;
60492;SDS011;46341;51.290;-2.474;2023-01-04T08:46:39;30.65;;;5.03;;
60492;SDS011;46341;51.290;-2.474;2023-01-04T08:49:06;27.98;;;4.70;;
60492;SDS011;46341;51.290;-2.474;2023-01-04T08:51:33;27.73;;;5.27;;
60492;SDS011;46341;51.290;-2.474;2023-01-04T08:53:59;26.92;;;4.75;;
60492;SDS011;46341;51.290;-2.474;2023-01-04T08:56:25;26.75;;;4.72;;
60492;SDS011;46341;51.290;-2.474;2023-01-04T08:58:52;26.13;;;3.78;;
60492;SDS011;46341;51.290;-2.474;2023-01-04T09:01:18;27.20;;;4.07;;
60492;SDS011;46341;51.290;-2.474;2023-01-04T09:03:45;28.88;;;4.60;;
60492;SDS011;46341;51.290;-2.474;2023-01-04T09:06:12;32.60;;;5.18;;
60492;SDS011;46341;51.290;-2.474;2023-01-04T09:08:39;30.63;;;4.32;;
60492;SDS011;46341;51.290;-2.474;2023-01-04T09:11:10;30.00;;;5.55;;
60492;SDS011;46341;51.290;-2.474;2023-01-04T09:13:37;35.53;;;6.63;;
60492;SDS011;46341;51.290;-2.474;2023-01-04T09:16:04;31.95;;;6.35;;
60492;SDS011;46341;51.290;-2.474;2023-01-04T09:18:32;36.15;;;6.38;;
60492;SDS011;46341;51.290;-2.474;2023-01-04T09:21:03;32.88;;;5.60;;
60492;SDS011;46341;51.290;-2.474;2023-01-04T09:23:30;34.85;;;6.20;;
60492;SDS011;46341;51.290;-2.474;2023-01-04T09:25:56;31.67;;;5.50;;
60492;SDS011;46341;51.290;-2.474;2023-01-04T09:28:22;38.60;;;6.00;;
60492;SDS011;46341;51.290;-2.474;2023-01-04T09:30:49;25.38;;;4.80;;
60492;SDS011;46341;51.290;-2.474;2023-01-04T09:33:15;33.08;;;4.95;;
60492;SDS011;46341;51.290;-2.474;2023-01-04T09:35:42;34.45;;;5.85;;
60492;SDS011;46341;51.290;-2.474;2023-01-04T09:38:08;28.88;;;5.40;;
60492;SDS011;46341;51.290;-2.474;2023-01-04T09:40:46;26.48;;;5.60;;
60492;SDS011;46341;51.290;-2.474;2023-01-04T09:43:17;35.67;;;5.97;;
60492;SDS011;46341;51.290;-2.474;2023-01-04T09:45:48;28.05;;;5.00;;
60492;SDS011;46341;51.290;-2.474;2023-01-04T09:48:17;32.95;;;5.63;;
60492;SDS011;46341;51.290;-2.474;2023-01-04T09:50:55;32.47;;;5.78;;
60492;SDS011;46341;51.290;-2.474;2023-01-04T09:53:25;35.90;;;6.60;;
60492;SDS011;46341;51.290;-2.474;2023-01-04T09:55:54;35.70;;;5.60;;
60492;SDS011;46341;51.290;-2.474;2023-01-04T10:00:54;38.33;;;6.13;;
60492;SDS011;46341;51.290;-2.474;2023-01-04T10:03:26;30.40;;;6.38;;
60492;SDS011;46341;51.290;-2.474;2023-01-04T10:05:54;33.78;;;6.32;;
60492;SDS011;46341;51.290;-2.474;2023-01-04T10:08:20;33.60;;;8.07;;
60492;SDS011;46341;51.290;-2.474;2023-01-04T10:10:55;32.28;;;5.93;;
60492;SDS011;46341;51.290;-2.474;2023-01-04T10:21:52;36.95;;;6.70;;
60492;SDS011;46341;51.290;-2.474;2023-01-04T10:24:34;38.97;;;6.83;;
60492;SDS011;46341;51.290;-2.474;2023-01-04T10:27:05;32.95;;;5.95;;
60492;SDS011;46341;51.290;-2.474;2023-01-04T10:34:40;36.95;;;7.05;;
60492;SDS011;46341;51.290;-2.474;2023-01-04T10:37:12;43.30;;;8.68;;
60492;SDS011;46341;51.290;-2.474;2023-01-04T10:39:39;35.22;;;9.32;;
60492;SDS011;46341;51.290;-2.474;2023-01-04T10:42:11;33.03;;;7.80;;
60492;SDS011;46341;51.290;-2.474;2023-01-04T10:44:43;41.33;;;10.07;;
60492;SDS011;46341;51.290;-2.474;2023-01-04T10:47:17;37.15;;;7.35;;
60492;SDS011;46341;51.290;-2.474;2023-01-04T10:49:56;32.30;;;5.93;;
60492;SDS011;46341;51.290;-2.474;2023-01-04T10:52:28;41.95;;;10.40;;
60492;SDS011;46341;51.290;-2.474;2023-01-04T10:54:58;45.35;;;10.32;;
60492;SDS011;46341;51.290;-2.474;2023-01-04T10:57:29;39.33;;;11.43;;
60492;SDS011;46341;51.290;-2.474;2023-01-04T11:00:04;33.63;;;7.57;;
60492;SDS011;46341;51.290;-2.474;2023-01-04T11:02:45;44.50;;;9.48;;
60492;SDS011;46341;51.290;-2.474;2023-01-04T11:05:19;31.55;;;6.25;;
60492;SDS011;46341;51.290;-2.474;2023-01-04T11:08:04;33.67;;;9.45;;
60492;SDS011;46341;51.290;-2.474;2023-01-04T11:10:40;45.03;;;14.43;;
60492;SDS011;46341;51.290;-2.474;2023-01-04T11:13:08;38.38;;;11.50;;
60492;SDS011;46341;51.290;-2.474;2023-01-04T11:15:34;33.10;;;9.57;;
60492;SDS011;46341;51.290;-2.474;2023-01-04T11:18:01;48.65;;;18.67;;
60492;SDS011;46341;51.290;-2.474;2023-01-04T11:20:28;39.63;;;9.63;;
60492;SDS011;46341;51.290;-2.474;2023-01-04T11:23:07;48.90;;;14.80;;
60492;SDS011;46341;51.290;-2.474;2023-01-04T11:25:36;37.25;;;8.15;;
60492;SDS011;46341;51.290;-2.474;2023-01-04T11:28:48;32.38;;;7.20;;
60492;SDS011;46341;51.290;-2.474;2023-01-04T11:30:59;28.60;;;6.55;;
60492;SDS011;46341;51.290;-2.474;2023-01-04T11:33:27;30.10;;;6.47;;
60492;SDS011;46341;51.290;-2.474;2023-01-04T11:35:54;43.30;;;10.95;;
60492;SDS011;46341;51.290;-2.474;2023-01-04T11:38:23;41.55;;;9.00;;
60492;SDS011;46341;51.290;-2.474;2023-01-04T11:41:02;43.25;;;9.63;;
60492;SDS011;46341;51.290;-2.474;2023-01-04T11:43:32;31.73;;;7.18;;
60492;SDS011;46341;51.290;-2.474;2023-01-04T11:48:34;30.80;;;6.97;;
60492;SDS011;46341;51.290;-2.474;2023-01-04T11:51:01;42.72;;;9.32;;
60492;SDS011;46341;51.290;-2.474;2023-01-04T11:53:29;55.05;;;13.52;;
60492;SDS011;46341;51.290;-2.474;2023-01-04T11:56:12;45.75;;;9.38;;
60492;SDS011;46341;51.290;-2.474;2023-01-04T11:58:39;42.95;;;12.20;;
60492;SDS011;46341;51.290;-2.474;2023-01-04T12:01:17;53.15;;;14.68;;
60492;SDS011;46341;51.290;-2.474;2023-01-04T12:03:44;41.35;;;10.95;;
60492;SDS011;46341;51.290;-2.474;2023-01-04T12:06:16;42.22;;;10.43;;
60492;SDS011;46341;51.290;-2.474;2023-01-04T12:08:43;38.92;;;10.57;;
60492;SDS011;46341;51.290;-2.474;2023-01-04T12:11:20;40.08;;;10.48;;
60492;SDS011;46341;51.290;-2.474;2023-01-04T12:13:49;44.83;;;9.98;;
60492;SDS011;46341;51.290;-2.474;2023-01-04T12:19:00;27.58;;;7.15;;
60492;SDS011;46341;51.290;-2.474;2023-01-04T12:21:30;33.00;;;7.20;;
60492;SDS011;46341;51.290;-2.474;2023-01-04T12:23:57;35.22;;;8.10;;
60492;SDS011;46341;51.290;-2.474;2023-01-04T12:41:09;35.28;;;7.18;;
60492;SDS011;46341;51.290;-2.474;2023-01-04T12:43:36;39.30;;;7.40;;
60492;SDS011;46341;51.290;-2.474;2023-01-04T12:54:55;33.90;;;5.70;;
60492;SDS011;46341;51.290;-2.474;2023-01-04T13:05:04;27.85;;;5.40;;
60492;SDS011;46341;51.290;-2.474;2023-01-04T13:08:09;23.13;;;4.70;;
60492;SDS011;46341;51.290;-2.474;2023-01-04T13:10:40;24.42;;;5.20;;
60492;SDS011;46341;51.290;-2.474;2023-01-04T13:16:08;28.38;;;5.10;;
60492;SDS011;46341;51.290;-2.474;2023-01-04T13:18:49;25.08;;;5.65;;
60492;SDS011;46341;51.290;-2.474;2023-01-04T13:21:26;30.40;;;5.13;;
60492;SDS011;46341;51.290;-2.474;2023-01-04T13:23:54;23.80;;;4.10;;
60492;SDS011;46341;51.290;-2.474;2023-01-04T13:29:14;23.55;;;4.97;;
60492;SDS011;46341;51.290;-2.474;2023-01-04T13:34:23;24.73;;;5.25;;
60492;SDS011;46341;51.290;-2.474;2023-01-04T13:37:00;29.40;;;5.88;;
60492;SDS011;46341;51.290;-2.474;2023-01-04T13:39:27;20.20;;;4.90;;
60492;SDS011;46341;51.290;-2.474;2023-01-04T13:41:54;24.50;;;5.00;;
60492;SDS011;46341;51.290;-2.474;2023-01-04T13:47:29;22.77;;;5.20;;
60492;SDS011;46341;51.290;-2.474;2023-01-04T13:49:59;19.50;;;5.10;;
60492;SDS011;46341;51.290;-2.474;2023-01-04T13:52:27;16.95;;;4.88;;
60492;SDS011;46341;51.290;-2.474;2023-01-04T13:55:27;24.67;;;6.97;;
60492;SDS011;46341;51.290;-2.474;2023-01-04T14:00:20;22.13;;;5.10;;
60492;SDS011;46341;51.290;-2.474;2023-01-04T14:02:57;19.93;;;4.70;;
60492;SDS011;46341;51.290;-2.474;2023-01-04T14:05:26;22.92;;;5.05;;
60492;SDS011;46341;51.290;-2.474;2023-01-04T14:07:53;20.95;;;4.85;;
60492;SDS011;46341;51.290;-2.474;2023-01-04T14:10:19;28.00;;;5.43;;
60492;SDS011;46341;51.290;-2.474;2023-01-04T14:12:45;23.33;;;5.63;;
60492;SDS011;46341;51.290;-2.474;2023-01-04T14:15:22;20.55;;;4.13;;
60492;SDS011;46341;51.290;-2.474;2023-01-04T14:17:53;26.05;;;5.47;;
60492;SDS011;46341;51.290;-2.474;2023-01-04T14:30:41;22.63;;;5.00;;
60492;SDS011;46341;51.290;-2.474;2023-01-04T14:33:20;25.77;;;5.10;;
60492;SDS011;46341;51.290;-2.474;2023-01-04T14:36:01;24.95;;;5.93;;
60492;SDS011;46341;51.290;-2.474;2023-01-04T14:38:27;25.42;;;5.28;;
60492;SDS011;46341;51.290;-2.474;2023-01-04T14:40:54;24.80;;;5.53;;
60492;SDS011;46341;51.290;-2.474;2023-01-04T14:45:56;29.95;;;6.43;;
60492;SDS011;46341;51.290;-2.474;2023-01-04T14:48:22;32.08;;;6.22;;
60492;SDS011;46341;51.290;-2.474;2023-01-04T14:50:49;33.13;;;6.63;;
60492;SDS011;46341;51.290;-2.474;2023-01-04T14:53:16;29.05;;;6.57;;
60492;SDS011;46341;51.290;-2.474;2023-01-04T14:55:44;36.25;;;7.28;;
60492;SDS011;46341;51.290;-2.474;2023-01-04T14:58:10;40.47;;;6.97;;
60492;SDS011;46341;51.290;-2.474;2023-01-04T15:00:37;29.38;;;6.40;;
60492;SDS011;46341;51.290;-2.474;2023-01-04T15:03:03;34.50;;;6.45;;
60492;SDS011;46341;51.290;-2.474;2023-01-04T15:05:30;31.08;;;7.15;;
60492;SDS011;46341;51.290;-2.474;2023-01-04T15:08:03;35.42;;;6.25;;
60492;SDS011;46341;51.290;-2.474;2023-01-04T15:10:29;39.78;;;7.68;;
60492;SDS011;46341;51.290;-2.474;2023-01-04T15:12:55;42.10;;;10.07;;
60492;SDS011;46341;51.290;-2.474;2023-01-04T15:15:26;40.38;;;8.45;;
60492;SDS011;46341;51.290;-2.474;2023-01-04T15:17:52;34.42;;;7.60;;
60492;SDS011;46341;51.290;-2.474;2023-01-04T15:20:18;32.13;;;7.25;;
60492;SDS011;46341;51.290;-2.474;2023-01-04T15:22:45;33.05;;;7.05;;
60492;SDS011;46341;51.290;-2.474;2023-01-04T15:25:11;31.90;;;6.45;;
60492;SDS011;46341;51.290;-2.474;2023-01-04T15:27:38;35.50;;;6.95;;
60492;SDS011;46341;51.290;-2.474;2023-01-04T15:30:08;34.47;;;6.28;;
60492;SDS011;46341;51.290;-2.474;2023-01-04T15:32:35;29.63;;;5.85;;
60492;SDS011;46341;51.290;-2.474;2023-01-04T15:35:02;30.83;;;6.22;;
60492;SDS011;46341;51.290;-2.474;2023-01-04T15:37:28;32.35;;;6.70;;
60492;SDS011;46341;51.290;-2.474;2023-01-04T15:39:54;30.00;;;5.90;;
60492;SDS011;46341;51.290;-2.474;2023-01-04T15:42:28;30.95;;;6.53;;
60492;SDS011;46341;51.290;-2.474;2023-01-04T15:45:13;29.90;;;5.93;;
60492;SDS011;46341;51.290;-2.474;2023-01-04T15:47:39;30.35;;;6.05;;
60492;SDS011;46341;51.290;-2.474;2023-01-04T15:50:06;30.52;;;6.65;;
60492;SDS011;46341;51.290;-2.474;2023-01-04T15:52:32;37.33;;;6.72;;
60492;SDS011;46341;51.290;-2.474;2023-01-04T15:54:59;36.60;;;7.20;;
60492;SDS011;46341;51.290;-2.474;2023-01-04T15:57:25;31.20;;;6.18;;
60492;SDS011;46341;51.290;-2.474;2023-01-04T15:59:51;31.52;;;6.22;;
60492;SDS011;46341;51.290;-2.474;2023-01-04T16:02:18;30.70;;;6.22;;
60492;SDS011;46341;51.290;-2.474;2023-01-04T16:04:44;34.72;;;6.55;;
60492;SDS011;46341;51.290;-2.474;2023-01-04T16:07:12;28.88;;;5.85;;
60492;SDS011;46341;51.290;-2.474;2023-01-04T16:09:38;34.78;;;7.93;;
60492;SDS011;46341;51.290;-2.474;2023-01-04T16:12:05;42.63;;;10.32;;
60492;SDS011;46341;51.290;-2.474;2023-01-04T16:14:50;37.83;;;7.07;;
60492;SDS011;46341;51.290;-2.474;2023-01-04T16:17:17;35.88;;;6.38;;
60492;SDS011;46341;51.290;-2.474;2023-01-04T16:19:43;31.13;;;6.20;;
60492;SDS011;46341;51.290;-2.474;2023-01-04T16:22:09;31.20;;;6.45;;
60492;SDS011;46341;51.290;-2.474;2023-01-04T16:24:36;35.17;;;6.20;;
60492;SDS011;46341;51.290;-2.474;2023-01-04T16:27:22;40.13;;;9.73;;
60492;SDS011;46341;51.290;-2.474;2023-01-04T16:29:49;37.05;;;7.05;;
60492;SDS011;46341;51.290;-2.474;2023-01-04T16:32:18;42.10;;;6.60;;